Terminal Aerodrome Forecast
Issued by NWS Dodge City, KS

Home | Current Version | Previous Version | Text Only | Print | Product List | Glossary On
Versions: 1 2 3 4 5 6 7 8 9 10 11 12 13 14 15 16 17 18 19 20 21 22 23 24 25 26 27 28 29 30 31 32 33 34 35
376
FTUS43 KDDC 091132
TAFDDC
TAF
KDDC 091132Z 0912/1012 30010KT P6SM BKN250
     FM091500 34015G23KT P6SM FEW080 SCT250
     FM100000 27007KT P6SM FEW080=

USA.gov is the U.S. government's official web portal to all federal, state and local government web resources and services.